sensor_id;sensor_type;location;lat;lon;timestamp;P1;durP1;ratioP1;P2;durP2;ratioP2
3997;SDS011;61314;53.444;9.902;2023-11-21T00:00:14;21.70;;;12.43;;
3997;SDS011;61314;53.444;9.902;2023-11-21T00:02:43;18.40;;;12.20;;
3997;SDS011;61314;53.444;9.902;2023-11-21T00:05:12;19.33;;;11.05;;
3997;SDS011;61314;53.444;9.902;2023-11-21T00:07:42;18.50;;;11.43;;
3997;SDS011;61314;53.444;9.902;2023-11-21T00:10:10;19.90;;;11.68;;
3997;SDS011;61314;53.444;9.902;2023-11-21T00:12:38;17.25;;;11.80;;
3997;SDS011;61314;53.444;9.902;2023-11-21T00:15:08;19.83;;;11.13;;
3997;SDS011;61314;53.444;9.902;2023-11-21T00:17:37;21.25;;;10.85;;
3997;SDS011;61314;53.444;9.902;2023-11-21T00:20:08;23.05;;;11.63;;
3997;SDS011;61314;53.444;9.902;2023-11-21T00:22:39;16.52;;;11.00;;
3997;SDS011;61314;53.444;9.902;2023-11-21T00:25:06;17.77;;;10.55;;
3997;SDS011;61314;53.444;9.902;2023-11-21T00:27:35;20.80;;;11.63;;
3997;SDS011;61314;53.444;9.902;2023-11-21T00:30:03;19.33;;;12.15;;
3997;SDS011;61314;53.444;9.902;2023-11-21T00:32:37;19.33;;;11.30;;
3997;SDS011;61314;53.444;9.902;2023-11-21T00:35:04;19.20;;;11.80;;
3997;SDS011;61314;53.444;9.902;2023-11-21T00:37:32;18.20;;;11.60;;
3997;SDS011;61314;53.444;9.902;2023-11-21T00:39:59;18.88;;;11.23;;
3997;SDS011;61314;53.444;9.902;2023-11-21T00:42:29;17.10;;;11.30;;
3997;SDS011;61314;53.444;9.902;2023-11-21T00:44:58;16.10;;;10.07;;
3997;SDS011;61314;53.444;9.902;2023-11-21T00:47:25;13.93;;;10.25;;
3997;SDS011;61314;53.444;9.902;2023-11-21T00:49:52;15.02;;;10.30;;
3997;SDS011;61314;53.444;9.902;2023-11-21T00:52:20;16.15;;;10.20;;
3997;SDS011;61314;53.444;9.902;2023-11-21T00:54:47;15.90;;;10.93;;
3997;SDS011;61314;53.444;9.902;2023-11-21T00:57:14;18.60;;;11.43;;
3997;SDS011;61314;53.444;9.902;2023-11-21T00:59:41;12.07;;;10.50;;
3997;SDS011;61314;53.444;9.902;2023-11-21T01:02:08;17.45;;;12.77;;
3997;SDS011;61314;53.444;9.902;2023-11-21T01:04:37;17.92;;;11.55;;
3997;SDS011;61314;53.444;9.902;2023-11-21T01:07:04;18.88;;;12.00;;
3997;SDS011;61314;53.444;9.902;2023-11-21T01:09:31;20.48;;;13.68;;
3997;SDS011;61314;53.444;9.902;2023-11-21T01:11:59;23.00;;;13.90;;
3997;SDS011;61314;53.444;9.902;2023-11-21T01:14:26;26.52;;;13.93;;
3997;SDS011;61314;53.444;9.902;2023-11-21T01:16:53;22.15;;;14.85;;
3997;SDS011;61314;53.444;9.902;2023-11-21T01:19:21;20.70;;;12.98;;
3997;SDS011;61314;53.444;9.902;2023-11-21T01:21:48;26.45;;;15.60;;
3997;SDS011;61314;53.444;9.902;2023-11-21T01:24:15;20.02;;;13.45;;
3997;SDS011;61314;53.444;9.902;2023-11-21T01:26:42;23.92;;;15.32;;
3997;SDS011;61314;53.444;9.902;2023-11-21T01:29:11;22.15;;;13.70;;
3997;SDS011;61314;53.444;9.902;2023-11-21T01:31:38;23.25;;;15.45;;
3997;SDS011;61314;53.444;9.902;2023-11-21T01:34:05;20.88;;;14.35;;
3997;SDS011;61314;53.444;9.902;2023-11-21T01:36:33;26.50;;;17.17;;
3997;SDS011;61314;53.444;9.902;2023-11-21T01:39:00;26.23;;;15.70;;
3997;SDS011;61314;53.444;9.902;2023-11-21T01:41:27;23.42;;;15.80;;
3997;SDS011;61314;53.444;9.902;2023-11-21T01:43:55;26.08;;;15.98;;
3997;SDS011;61314;53.444;9.902;2023-11-21T01:46:22;19.55;;;13.75;;
3997;SDS011;61314;53.444;9.902;2023-11-21T01:48:50;26.95;;;16.58;;
3997;SDS011;61314;53.444;9.902;2023-11-21T01:51:17;29.30;;;16.70;;
3997;SDS011;61314;53.444;9.902;2023-11-21T01:53:45;26.88;;;18.20;;
3997;SDS011;61314;53.444;9.902;2023-11-21T01:56:13;24.08;;;17.25;;
3997;SDS011;61314;53.444;9.902;2023-11-21T01:58:40;23.90;;;15.80;;
3997;SDS011;61314;53.444;9.902;2023-11-21T02:01:07;27.02;;;16.00;;
3997;SDS011;61314;53.444;9.902;2023-11-21T02:03:36;28.77;;;16.00;;
3997;SDS011;61314;53.444;9.902;2023-11-21T02:06:03;21.83;;;14.85;;
3997;SDS011;61314;53.444;9.902;2023-11-21T02:08:31;24.70;;;15.35;;
3997;SDS011;61314;53.444;9.902;2023-11-21T02:10:59;21.02;;;15.30;;
3997;SDS011;61314;53.444;9.902;2023-11-21T02:13:26;21.85;;;13.30;;
3997;SDS011;61314;53.444;9.902;2023-11-21T02:15:54;19.55;;;13.93;;
3997;SDS011;61314;53.444;9.902;2023-11-21T02:18:22;20.60;;;14.32;;
3997;SDS011;61314;53.444;9.902;2023-11-21T02:20:49;19.95;;;13.30;;
3997;SDS011;61314;53.444;9.902;2023-11-21T02:23:17;19.25;;;12.77;;
3997;SDS011;61314;53.444;9.902;2023-11-21T02:25:44;16.55;;;11.82;;
3997;SDS011;61314;53.444;9.902;2023-11-21T02:28:11;16.83;;;12.40;;
3997;SDS011;61314;53.444;9.902;2023-11-21T02:30:41;17.10;;;11.80;;
3997;SDS011;61314;53.444;9.902;2023-11-21T02:33:09;16.90;;;12.23;;
3997;SDS011;61314;53.444;9.902;2023-11-21T02:35:38;14.85;;;11.15;;
3997;SDS011;61314;53.444;9.902;2023-11-21T02:38:06;15.70;;;11.98;;
3997;SDS011;61314;53.444;9.902;2023-11-21T02:40:33;11.40;;;9.57;;
3997;SDS011;61314;53.444;9.902;2023-11-21T02:43:00;17.33;;;11.45;;
3997;SDS011;61314;53.444;9.902;2023-11-21T02:45:27;15.32;;;10.90;;
3997;SDS011;61314;53.444;9.902;2023-11-21T02:47:54;12.85;;;10.77;;
3997;SDS011;61314;53.444;9.902;2023-11-21T02:50:24;11.93;;;9.70;;
3997;SDS011;61314;53.444;9.902;2023-11-21T02:52:51;14.25;;;10.85;;
3997;SDS011;61314;53.444;9.902;2023-11-21T02:55:18;14.80;;;10.55;;
3997;SDS011;61314;53.444;9.902;2023-11-21T02:57:45;10.43;;;8.75;;
3997;SDS011;61314;53.444;9.902;2023-11-21T03:00:12;13.77;;;9.38;;
3997;SDS011;61314;53.444;9.902;2023-11-21T03:02:41;13.38;;;9.63;;
3997;SDS011;61314;53.444;9.902;2023-11-21T03:05:09;12.32;;;10.18;;
3997;SDS011;61314;53.444;9.902;2023-11-21T03:07:37;11.48;;;9.30;;
3997;SDS011;61314;53.444;9.902;2023-11-21T03:10:05;10.25;;;9.20;;
3997;SDS011;61314;53.444;9.902;2023-11-21T03:12:32;13.43;;;10.80;;
3997;SDS011;61314;53.444;9.902;2023-11-21T03:14:59;12.00;;;8.50;;
3997;SDS011;61314;53.444;9.902;2023-11-21T03:17:27;12.20;;;8.63;;
3997;SDS011;61314;53.444;9.902;2023-11-21T03:19:55;11.18;;;8.05;;
3997;SDS011;61314;53.444;9.902;2023-11-21T03:22:23;13.45;;;8.20;;
3997;SDS011;61314;53.444;9.902;2023-11-21T03:24:50;8.90;;;7.97;;
3997;SDS011;61314;53.444;9.902;2023-11-21T03:27:17;10.27;;;7.88;;
3997;SDS011;61314;53.444;9.902;2023-11-21T03:29:44;10.77;;;8.52;;
3997;SDS011;61314;53.444;9.902;2023-11-21T03:32:13;12.73;;;9.70;;
3997;SDS011;61314;53.444;9.902;2023-11-21T03:34:53;10.90;;;8.93;;
3997;SDS011;61314;53.444;9.902;2023-11-21T03:37:21;9.82;;;7.75;;
3997;SDS011;61314;53.444;9.902;2023-11-21T03:39:49;12.57;;;9.45;;
3997;SDS011;61314;53.444;9.902;2023-11-21T03:42:16;10.45;;;9.35;;
3997;SDS011;61314;53.444;9.902;2023-11-21T03:44:43;14.18;;;9.43;;
3997;SDS011;61314;53.444;9.902;2023-11-21T03:47:10;12.88;;;9.25;;
3997;SDS011;61314;53.444;9.902;2023-11-21T03:49:37;14.55;;;10.13;;
3997;SDS011;61314;53.444;9.902;2023-11-21T03:52:05;15.02;;;10.93;;
3997;SDS011;61314;53.444;9.902;2023-11-21T03:54:33;17.33;;;10.15;;
3997;SDS011;61314;53.444;9.902;2023-11-21T03:57:00;13.60;;;10.70;;
3997;SDS011;61314;53.444;9.902;2023-11-21T03:59:27;13.55;;;9.90;;
3997;SDS011;61314;53.444;9.902;2023-11-21T04:01:55;13.02;;;10.07;;
3997;SDS011;61314;53.444;9.902;2023-11-21T04:04:23;13.27;;;9.23;;
3997;SDS011;61314;53.444;9.902;2023-11-21T04:06:50;12.13;;;10.35;;
3997;SDS011;61314;53.444;9.902;2023-11-21T04:09:20;13.27;;;10.48;;
3997;SDS011;61314;53.444;9.902;2023-11-21T04:11:51;14.27;;;10.20;;
3997;SDS011;61314;53.444;9.902;2023-11-21T04:14:18;15.45;;;10.75;;
3997;SDS011;61314;53.444;9.902;2023-11-21T04:16:45;19.13;;;10.75;;
3997;SDS011;61314;53.444;9.902;2023-11-21T04:19:13;15.27;;;10.73;;
3997;SDS011;61314;53.444;9.902;2023-11-21T04:21:41;15.43;;;9.93;;
3997;SDS011;61314;53.444;9.902;2023-11-21T04:24:09;16.77;;;10.07;;
3997;SDS011;61314;53.444;9.902;2023-11-21T04:26:36;15.35;;;10.85;;
3997;SDS011;61314;53.444;9.902;2023-11-21T04:29:03;16.38;;;12.73;;
3997;SDS011;61314;53.444;9.902;2023-11-21T04:31:30;17.65;;;11.85;;
3997;SDS011;61314;53.444;9.902;2023-11-21T04:33:58;12.35;;;9.75;;
3997;SDS011;61314;53.444;9.902;2023-11-21T04:36:25;18.52;;;10.30;;
3997;SDS011;61314;53.444;9.902;2023-11-21T04:38:52;15.27;;;10.25;;
3997;SDS011;61314;53.444;9.902;2023-11-21T04:41:20;15.30;;;10.48;;
3997;SDS011;61314;53.444;9.902;2023-11-21T04:43:47;16.85;;;11.45;;
3997;SDS011;61314;53.444;9.902;2023-11-21T04:46:14;15.13;;;11.07;;
3997;SDS011;61314;53.444;9.902;2023-11-21T04:48:41;15.45;;;10.50;;
3997;SDS011;61314;53.444;9.902;2023-11-21T04:51:08;16.17;;;11.40;;
3997;SDS011;61314;53.444;9.902;2023-11-21T04:53:37;13.13;;;10.63;;
3997;SDS011;61314;53.444;9.902;2023-11-21T04:56:05;14.65;;;11.35;;
3997;SDS011;61314;53.444;9.902;2023-11-21T04:58:33;15.07;;;10.93;;
3997;SDS011;61314;53.444;9.902;2023-11-21T05:01:00;16.92;;;10.63;;
3997;SDS011;61314;53.444;9.902;2023-11-21T05:03:28;15.10;;;11.40;;
3997;SDS011;61314;53.444;9.902;2023-11-21T05:05:56;15.05;;;10.10;;
3997;SDS011;61314;53.444;9.902;2023-11-21T05:08:23;16.48;;;11.57;;
3997;SDS011;61314;53.444;9.902;2023-11-21T05:10:50;18.85;;;12.02;;
3997;SDS011;61314;53.444;9.902;2023-11-21T05:13:18;16.75;;;11.90;;
3997;SDS011;61314;53.444;9.902;2023-11-21T05:15:46;16.45;;;11.85;;
3997;SDS011;61314;53.444;9.902;2023-11-21T05:18:13;16.88;;;11.63;;
3997;SDS011;61314;53.444;9.902;2023-11-21T05:20:40;21.55;;;12.55;;
3997;SDS011;61314;53.444;9.902;2023-11-21T05:23:07;14.48;;;10.45;;
3997;SDS011;61314;53.444;9.902;2023-11-21T05:25:35;19.10;;;11.60;;
3997;SDS011;61314;53.444;9.902;2023-11-21T05:28:06;14.70;;;11.07;;
3997;SDS011;61314;53.444;9.902;2023-11-21T05:30:33;18.88;;;11.43;;
3997;SDS011;61314;53.444;9.902;2023-11-21T05:33:00;15.25;;;11.90;;
3997;SDS011;61314;53.444;9.902;2023-11-21T05:35:27;16.95;;;11.75;;
3997;SDS011;61314;53.444;9.902;2023-11-21T05:37:54;16.20;;;11.95;;
3997;SDS011;61314;53.444;9.902;2023-11-21T05:40:22;19.88;;;10.95;;
3997;SDS011;61314;53.444;9.902;2023-11-21T05:42:49;16.65;;;11.10;;
3997;SDS011;61314;53.444;9.902;2023-11-21T05:45:17;16.17;;;11.02;;
3997;SDS011;61314;53.444;9.902;2023-11-21T05:47:45;20.52;;;11.15;;
3997;SDS011;61314;53.444;9.902;2023-11-21T05:50:14;16.05;;;10.90;;
3997;SDS011;61314;53.444;9.902;2023-11-21T05:52:42;21.05;;;12.20;;
3997;SDS011;61314;53.444;9.902;2023-11-21T05:55:10;18.92;;;11.20;;
3997;SDS011;61314;53.444;9.902;2023-11-21T05:57:38;18.63;;;11.77;;
3997;SDS011;61314;53.444;9.902;2023-11-21T06:00:05;21.48;;;12.95;;
3997;SDS011;61314;53.444;9.902;2023-11-21T06:02:46;19.30;;;12.00;;
3997;SDS011;61314;53.444;9.902;2023-11-21T06:05:17;18.67;;;11.90;;
3997;SDS011;61314;53.444;9.902;2023-11-21T06:07:45;21.52;;;11.80;;
3997;SDS011;61314;53.444;9.902;2023-11-21T06:10:12;16.65;;;11.25;;
3997;SDS011;61314;53.444;9.902;2023-11-21T06:12:41;17.80;;;12.25;;
3997;SDS011;61314;53.444;9.902;2023-11-21T06:15:10;17.88;;;12.30;;
3997;SDS011;61314;53.444;9.902;2023-11-21T06:17:41;17.77;;;10.88;;
3997;SDS011;61314;53.444;9.902;2023-11-21T06:20:09;16.17;;;11.20;;
3997;SDS011;61314;53.444;9.902;2023-11-21T06:22:40;19.60;;;11.52;;
3997;SDS011;61314;53.444;9.902;2023-11-21T06:25:08;15.20;;;10.75;;
3997;SDS011;61314;53.444;9.902;2023-11-21T06:27:39;17.15;;;12.15;;
3997;SDS011;61314;53.444;9.902;2023-11-21T06:30:07;16.83;;;12.30;;
3997;SDS011;61314;53.444;9.902;2023-11-21T06:32:36;22.98;;;12.82;;
3997;SDS011;61314;53.444;9.902;2023-11-21T06:35:04;19.30;;;13.93;;
3997;SDS011;61314;53.444;9.902;2023-11-21T06:37:31;16.27;;;12.80;;
3997;SDS011;61314;53.444;9.902;2023-11-21T06:39:59;15.90;;;10.85;;
3997;SDS011;61314;53.444;9.902;2023-11-21T06:42:26;15.02;;;11.43;;
3997;SDS011;61314;53.444;9.902;2023-11-21T06:44:55;16.70;;;11.70;;
3997;SDS011;61314;53.444;9.902;2023-11-21T06:47:23;18.40;;;12.02;;
3997;SDS011;61314;53.444;9.902;2023-11-21T06:49:52;25.08;;;14.52;;
3997;SDS011;61314;53.444;9.902;2023-11-21T06:52:19;20.23;;;12.77;;
3997;SDS011;61314;53.444;9.902;2023-11-21T06:54:47;14.95;;;11.38;;
3997;SDS011;61314;53.444;9.902;2023-11-21T06:57:16;19.23;;;12.43;;
3997;SDS011;61314;53.444;9.902;2023-11-21T06:59:43;21.48;;;13.98;;
3997;SDS011;61314;53.444;9.902;2023-11-21T07:02:10;17.55;;;11.90;;
3997;SDS011;61314;53.444;9.902;2023-11-21T07:04:38;16.27;;;12.70;;
3997;SDS011;61314;53.444;9.902;2023-11-21T07:07:06;17.13;;;12.05;;
3997;SDS011;61314;53.444;9.902;2023-11-21T07:09:33;16.48;;;12.45;;
3997;SDS011;61314;53.444;9.902;2023-11-21T07:12:01;17.05;;;12.52;;
3997;SDS011;61314;53.444;9.902;2023-11-21T07:14:30;17.80;;;12.10;;
3997;SDS011;61314;53.444;9.902;2023-11-21T07:16:58;17.45;;;12.20;;
3997;SDS011;61314;53.444;9.902;2023-11-21T07:19:25;19.33;;;13.60;;
3997;SDS011;61314;53.444;9.902;2023-11-21T07:21:52;18.27;;;12.50;;
3997;SDS011;61314;53.444;9.902;2023-11-21T07:24:19;18.80;;;12.90;;
3997;SDS011;61314;53.444;9.902;2023-11-21T07:26:48;16.58;;;11.93;;
3997;SDS011;61314;53.444;9.902;2023-11-21T07:29:16;18.45;;;12.32;;
3997;SDS011;61314;53.444;9.902;2023-11-21T07:31:43;17.70;;;12.43;;
3997;SDS011;61314;53.444;9.902;2023-11-21T07:34:10;16.85;;;12.07;;
3997;SDS011;61314;53.444;9.902;2023-11-21T07:36:38;35.58;;;24.83;;
3997;SDS011;61314;53.444;9.902;2023-11-21T07:39:08;20.75;;;14.30;;
3997;SDS011;61314;53.444;9.902;2023-11-21T07:41:37;18.98;;;12.60;;
3997;SDS011;61314;53.444;9.902;2023-11-21T07:44:11;15.45;;;12.43;;
3997;SDS011;61314;53.444;9.902;2023-11-21T07:46:38;13.82;;;11.30;;
3997;SDS011;61314;53.444;9.902;2023-11-21T07:49:05;24.38;;;11.30;;
3997;SDS011;61314;53.444;9.902;2023-11-21T07:51:32;16.60;;;12.48;;
3997;SDS011;61314;53.444;9.902;2023-11-21T07:53:59;16.55;;;12.85;;
3997;SDS011;61314;53.444;9.902;2023-11-21T07:56:26;17.35;;;12.32;;
3997;SDS011;61314;53.444;9.902;2023-11-21T07:58:54;17.92;;;13.20;;
3997;SDS011;61314;53.444;9.902;2023-11-21T08:01:21;20.77;;;11.60;;
3997;SDS011;61314;53.444;9.902;2023-11-21T08:03:48;18.83;;;13.52;;
3997;SDS011;61314;53.444;9.902;2023-11-21T08:06:18;15.73;;;11.85;;
3997;SDS011;61314;53.444;9.902;2023-11-21T08:08:45;18.73;;;14.00;;
3997;SDS011;61314;53.444;9.902;2023-11-21T08:11:13;20.17;;;13.25;;
3997;SDS011;61314;53.444;9.902;2023-11-21T08:13:40;17.67;;;14.40;;
3997;SDS011;61314;53.444;9.902;2023-11-21T08:16:07;20.10;;;14.40;;
3997;SDS011;61314;53.444;9.902;2023-11-21T08:18:35;26.40;;;14.55;;
3997;SDS011;61314;53.444;9.902;2023-11-21T08:21:02;25.67;;;14.43;;
3997;SDS011;61314;53.444;9.902;2023-11-21T08:23:30;18.10;;;13.77;;
3997;SDS011;61314;53.444;9.902;2023-11-21T08:25:58;17.80;;;13.38;;
3997;SDS011;61314;53.444;9.902;2023-11-21T08:28:25;19.08;;;14.00;;
3997;SDS011;61314;53.444;9.902;2023-11-21T08:30:52;20.73;;;13.73;;
3997;SDS011;61314;53.444;9.902;2023-11-21T08:33:23;15.23;;;12.90;;
3997;SDS011;61314;53.444;9.902;2023-11-21T08:35:50;19.25;;;14.07;;
3997;SDS011;61314;53.444;9.902;2023-11-21T08:38:17;18.48;;;14.05;;
3997;SDS011;61314;53.444;9.902;2023-11-21T08:40:44;16.95;;;12.60;;
3997;SDS011;61314;53.444;9.902;2023-11-21T08:43:11;18.48;;;12.18;;
3997;SDS011;61314;53.444;9.902;2023-11-21T08:45:40;19.23;;;13.32;;
3997;SDS011;61314;53.444;9.902;2023-11-21T08:48:07;15.07;;;11.88;;
3997;SDS011;61314;53.444;9.902;2023-11-21T08:50:34;17.90;;;12.73;;
3997;SDS011;61314;53.444;9.902;2023-11-21T08:53:01;17.52;;;12.27;;
3997;SDS011;61314;53.444;9.902;2023-11-21T08:55:29;16.10;;;10.57;;
3997;SDS011;61314;53.444;9.902;2023-11-21T08:57:56;16.98;;;11.77;;
3997;SDS011;61314;53.444;9.902;2023-11-21T09:00:27;18.63;;;12.45;;
3997;SDS011;61314;53.444;9.902;2023-11-21T09:02:54;14.05;;;10.60;;
3997;SDS011;61314;53.444;9.902;2023-11-21T09:05:21;15.95;;;10.60;;
3997;SDS011;61314;53.444;9.902;2023-11-21T09:07:49;17.27;;;11.35;;
3997;SDS011;61314;53.444;9.902;2023-11-21T09:10:16;9.88;;;8.50;;
3997;SDS011;61314;53.444;9.902;2023-11-21T09:12:43;13.80;;;9.45;;
3997;SDS011;61314;53.444;9.902;2023-11-21T09:15:10;12.63;;;9.80;;
3997;SDS011;61314;53.444;9.902;2023-11-21T09:17:37;16.60;;;10.18;;
3997;SDS011;61314;53.444;9.902;2023-11-21T09:20:06;11.32;;;9.43;;
3997;SDS011;61314;53.444;9.902;2023-11-21T09:22:36;10.25;;;8.45;;
3997;SDS011;61314;53.444;9.902;2023-11-21T09:25:03;11.70;;;8.30;;
3997;SDS011;61314;53.444;9.902;2023-11-21T09:27:34;10.68;;;9.15;;
3997;SDS011;61314;53.444;9.902;2023-11-21T09:30:02;12.32;;;8.93;;
3997;SDS011;61314;53.444;9.902;2023-11-21T09:32:31;9.63;;;7.57;;
3997;SDS011;61314;53.444;9.902;2023-11-21T09:34:58;8.98;;;6.70;;
3997;SDS011;61314;53.444;9.902;2023-11-21T09:37:28;8.95;;;7.45;;
3997;SDS011;61314;53.444;9.902;2023-11-21T09:39:55;8.85;;;7.80;;
3997;SDS011;61314;53.444;9.902;2023-11-21T09:42:28;8.23;;;7.32;;
3997;SDS011;61314;53.444;9.902;2023-11-21T09:45:05;10.43;;;8.00;;
3997;SDS011;61314;53.444;9.902;2023-11-21T09:47:37;8.55;;;6.60;;
3997;SDS011;61314;53.444;9.902;2023-11-21T09:50:05;9.38;;;6.85;;
3997;SDS011;61314;53.444;9.902;2023-11-21T09:52:38;7.60;;;6.60;;
3997;SDS011;61314;53.444;9.902;2023-11-21T09:55:08;6.25;;;5.65;;
3997;SDS011;61314;53.444;9.902;2023-11-21T09:57:39;13.23;;;6.28;;
3997;SDS011;61314;53.444;9.902;2023-11-21T10:00:07;7.75;;;6.50;;
3997;SDS011;61314;53.444;9.902;2023-11-21T10:02:38;6.78;;;5.47;;
3997;SDS011;61314;53.444;9.902;2023-11-21T10:05:07;7.57;;;6.15;;
3997;SDS011;61314;53.444;9.902;2023-11-21T10:07:38;10.57;;;6.00;;
3997;SDS011;61314;53.444;9.902;2023-11-21T10:10:07;6.13;;;5.55;;
3997;SDS011;61314;53.444;9.902;2023-11-21T10:12:35;5.75;;;5.25;;
3997;SDS011;61314;53.444;9.902;2023-11-21T10:15:06;8.68;;;6.50;;
3997;SDS011;61314;53.444;9.902;2023-11-21T10:17:37;9.98;;;5.90;;
3997;SDS011;61314;53.444;9.902;2023-11-21T10:20:12;5.57;;;5.15;;
3997;SDS011;61314;53.444;9.902;2023-11-21T10:22:40;7.45;;;5.70;;
3997;SDS011;61314;53.444;9.902;2023-11-21T10:25:11;4.97;;;4.50;;
3997;SDS011;61314;53.444;9.902;2023-11-21T10:27:42;6.07;;;5.47;;
3997;SDS011;61314;53.444;9.902;2023-11-21T10:30:10;8.02;;;5.95;;
3997;SDS011;61314;53.444;9.902;2023-11-21T10:32:42;5.78;;;4.70;;
3997;SDS011;61314;53.444;9.902;2023-11-21T10:35:10;6.22;;;5.22;;
3997;SDS011;61314;53.444;9.902;2023-11-21T10:37:40;6.70;;;6.10;;
3997;SDS011;61314;53.444;9.902;2023-11-21T10:40:08;12.95;;;5.68;;
3997;SDS011;61314;53.444;9.902;2023-11-21T10:42:39;6.85;;;6.15;;
3997;SDS011;61314;53.444;9.902;2023-11-21T10:45:08;9.07;;;7.22;;
3997;SDS011;61314;53.444;9.902;2023-11-21T10:47:41;11.10;;;5.80;;
3997;SDS011;61314;53.444;9.902;2023-11-21T10:50:08;6.38;;;5.72;;
3997;SDS011;61314;53.444;9.902;2023-11-21T10:52:39;4.85;;;4.43;;
3997;SDS011;61314;53.444;9.902;2023-11-21T10:55:16;6.95;;;6.03;;
3997;SDS011;61314;53.444;9.902;2023-11-21T10:57:45;7.97;;;5.78;;
3997;SDS011;61314;53.444;9.902;2023-11-21T11:00:14;5.90;;;5.07;;
3997;SDS011;61314;53.444;9.902;2023-11-21T11:02:42;7.18;;;6.38;;
3997;SDS011;61314;53.444;9.902;2023-11-21T11:05:10;5.88;;;5.25;;
3997;SDS011;61314;53.444;9.902;2023-11-21T11:07:38;6.32;;;5.45;;
3997;SDS011;61314;53.444;9.902;2023-11-21T11:10:06;6.03;;;5.53;;
3997;SDS011;61314;53.444;9.902;2023-11-21T11:12:35;12.25;;;5.90;;
3997;SDS011;61314;53.444;9.902;2023-11-21T11:15:02;7.10;;;5.72;;
3997;SDS011;61314;53.444;9.902;2023-11-21T11:17:31;10.15;;;4.43;;
3997;SDS011;61314;53.444;9.902;2023-11-21T11:19:59;7.72;;;5.32;;
3997;SDS011;61314;53.444;9.902;2023-11-21T11:22:34;6.07;;;5.47;;
3997;SDS011;61314;53.444;9.902;2023-11-21T11:32:47;6.43;;;5.78;;
3997;SDS011;61314;53.444;9.902;2023-11-21T11:35:26;4.95;;;4.45;;
3997;SDS011;61314;53.444;9.902;2023-11-21T11:37:56;5.20;;;4.70;;
3997;SDS011;61314;53.444;9.902;2023-11-21T11:40:25;5.35;;;4.70;;
3997;SDS011;61314;53.444;9.902;2023-11-21T11:42:56;10.02;;;5.35;;
3997;SDS011;61314;53.444;9.902;2023-11-21T11:45:25;4.90;;;4.50;;
3997;SDS011;61314;53.444;9.902;2023-11-21T11:47:58;6.85;;;4.95;;
3997;SDS011;61314;53.444;9.902;2023-11-21T11:50:26;6.72;;;5.95;;
3997;SDS011;61314;53.444;9.902;2023-11-21T11:52:53;5.65;;;4.00;;
3997;SDS011;61314;53.444;9.902;2023-11-21T11:55:24;5.65;;;5.15;;
3997;SDS011;61314;53.444;9.902;2023-11-21T11:57:52;5.00;;;4.50;;
3997;SDS011;61314;53.444;9.902;2023-11-21T12:00:33;7.35;;;5.30;;
3997;SDS011;61314;53.444;9.902;2023-11-21T12:03:04;7.50;;;4.28;;
3997;SDS011;61314;53.444;9.902;2023-11-21T12:05:32;5.18;;;4.10;;
3997;SDS011;61314;53.444;9.902;2023-11-21T12:08:02;4.05;;;3.75;;
3997;SDS011;61314;53.444;9.902;2023-11-21T12:10:31;4.22;;;3.80;;
3997;SDS011;61314;53.444;9.902;2023-11-21T12:12:59;6.55;;;4.28;;
3997;SDS011;61314;53.444;9.902;2023-11-21T12:15:27;4.95;;;4.45;;
3997;SDS011;61314;53.444;9.902;2023-11-21T12:17:57;5.85;;;5.30;;
3997;SDS011;61314;53.444;9.902;2023-11-21T12:20:25;8.68;;;4.82;;
3997;SDS011;61314;53.444;9.902;2023-11-21T12:25:21;6.68;;;4.68;;
3997;SDS011;61314;53.444;9.902;2023-11-21T12:27:49;4.07;;;3.75;;
3997;SDS011;61314;53.444;9.902;2023-11-21T12:30:17;5.28;;;4.78;;
3997;SDS011;61314;53.444;9.902;2023-11-21T12:32:47;4.70;;;4.25;;
3997;SDS011;61314;53.444;9.902;2023-11-21T12:35:14;5.25;;;4.40;;
3997;SDS011;61314;53.444;9.902;2023-11-21T12:37:45;4.82;;;3.83;;
3997;SDS011;61314;53.444;9.902;2023-11-21T12:40:13;4.90;;;4.50;;
3997;SDS011;61314;53.444;9.902;2023-11-21T12:42:42;5.32;;;4.93;;
3997;SDS011;61314;53.444;9.902;2023-11-21T12:47:43;4.63;;;4.22;;
3997;SDS011;61314;53.444;9.902;2023-11-21T12:50:11;8.10;;;4.25;;
3997;SDS011;61314;53.444;9.902;2023-11-21T12:52:41;8.88;;;4.30;;
3997;SDS011;61314;53.444;9.902;2023-11-21T12:55:10;5.80;;;4.18;;
3997;SDS011;61314;53.444;9.902;2023-11-21T12:57:41;4.53;;;4.00;;
3997;SDS011;61314;53.444;9.902;2023-11-21T13:00:09;4.90;;;4.35;;
3997;SDS011;61314;53.444;9.902;2023-11-21T13:02:42;5.20;;;4.70;;
3997;SDS011;61314;53.444;9.902;2023-11-21T13:05:10;6.22;;;4.38;;
3997;SDS011;61314;53.444;9.902;2023-11-21T13:07:44;4.75;;;4.25;;
3997;SDS011;61314;53.444;9.902;2023-11-21T13:10:13;5.55;;;3.92;;
3997;SDS011;61314;53.444;9.902;2023-11-21T13:12:44;6.10;;;3.90;;
3997;SDS011;61314;53.444;9.902;2023-11-21T13:15:15;4.65;;;4.25;;
3997;SDS011;61314;53.444;9.902;2023-11-21T13:17:43;5.10;;;4.60;;
3997;SDS011;61314;53.444;9.902;2023-11-21T13:20:14;5.05;;;4.30;;
3997;SDS011;61314;53.444;9.902;2023-11-21T13:22:48;5.25;;;4.60;;
3997;SDS011;61314;53.444;9.902;2023-11-21T13:25:16;8.13;;;5.18;;
3997;SDS011;61314;53.444;9.902;2023-11-21T13:27:44;6.05;;;3.90;;
3997;SDS011;61314;53.444;9.902;2023-11-21T13:30:12;4.47;;;3.97;;
3997;SDS011;61314;53.444;9.902;2023-11-21T13:32:42;6.30;;;4.43;;
3997;SDS011;61314;53.444;9.902;2023-11-21T13:35:09;7.85;;;4.57;;
3997;SDS011;61314;53.444;9.902;2023-11-21T13:37:47;4.75;;;4.13;;
3997;SDS011;61314;53.444;9.902;2023-11-21T13:40:15;5.07;;;4.63;;
3997;SDS011;61314;53.444;9.902;2023-11-21T13:42:49;8.43;;;4.47;;
3997;SDS011;61314;53.444;9.902;2023-11-21T13:45:20;6.63;;;4.18;;
3997;SDS011;61314;53.444;9.902;2023-11-21T13:47:52;5.22;;;3.80;;
3997;SDS011;61314;53.444;9.902;2023-11-21T13:50:24;8.05;;;4.80;;
3997;SDS011;61314;53.444;9.902;2023-11-21T13:52:58;4.82;;;4.43;;
3997;SDS011;61314;53.444;9.902;2023-11-21T13:55:34;5.50;;;4.93;;
3997;SDS011;61314;53.444;9.902;2023-11-21T13:58:02;5.60;;;4.35;;
3997;SDS011;61314;53.444;9.902;2023-11-21T14:00:30;4.88;;;4.47;;
3997;SDS011;61314;53.444;9.902;2023-11-21T14:03:13;6.00;;;4.65;;
3997;SDS011;61314;53.444;9.902;2023-11-21T14:05:47;5.20;;;4.68;;
3997;SDS011;61314;53.444;9.902;2023-11-21T14:08:20;10.70;;;4.65;;
3997;SDS011;61314;53.444;9.902;2023-11-21T14:10:49;5.50;;;5.00;;
3997;SDS011;61314;53.444;9.902;2023-11-21T14:13:19;5.28;;;4.78;;
3997;SDS011;61314;53.444;9.902;2023-11-21T14:15:49;5.63;;;4.13;;
3997;SDS011;61314;53.444;9.902;2023-11-21T14:18:24;7.22;;;4.43;;
3997;SDS011;61314;53.444;9.902;2023-11-21T14:21:02;7.95;;;4.15;;
3997;SDS011;61314;53.444;9.902;2023-11-21T14:23:29;14.23;;;4.95;;
3997;SDS011;61314;53.444;9.902;2023-11-21T14:25:56;4.35;;;4.00;;
3997;SDS011;61314;53.444;9.902;2023-11-21T14:28:24;10.13;;;4.55;;
3997;SDS011;61314;53.444;9.902;2023-11-21T14:30:51;8.63;;;4.00;;
3997;SDS011;61314;53.444;9.902;2023-11-21T14:33:18;4.80;;;4.40;;
3997;SDS011;61314;53.444;9.902;2023-11-21T14:35:45;4.63;;;4.22;;
3997;SDS011;61314;53.444;9.902;2023-11-21T14:38:13;4.90;;;4.30;;
3997;SDS011;61314;53.444;9.902;2023-11-21T14:40:40;4.07;;;3.78;;
3997;SDS011;61314;53.444;9.902;2023-11-21T14:43:11;6.47;;;4.25;;
3997;SDS011;61314;53.444;9.902;2023-11-21T14:45:39;4.63;;;4.22;;
3997;SDS011;61314;53.444;9.902;2023-11-21T14:48:06;4.50;;;4.10;;
3997;SDS011;61314;53.444;9.902;2023-11-21T14:50:43;4.80;;;4.28;;
3997;SDS011;61314;53.444;9.902;2023-11-21T14:53:30;6.70;;;4.60;;
3997;SDS011;61314;53.444;9.902;2023-11-21T14:56:22;5.32;;;4.53;;
3997;SDS011;61314;53.444;9.902;2023-11-21T14:58:56;4.32;;;4.03;;
3997;SDS011;61314;53.444;9.902;2023-11-21T15:01:30;3.72;;;3.42;;
3997;SDS011;61314;53.444;9.902;2023-11-21T15:04:16;4.70;;;4.30;;
3997;SDS011;61314;53.444;9.902;2023-11-21T15:07:03;7.00;;;5.20;;